Decoded Metar for LTDA (HATAY AIRPORT in TURQUEY) (IATA:) | Meteo·Mobile Aviation Weather
aviador You're here:

LTDA Decoded Metar

HATAY AIRPORT in TURQUEY
Report Time2019-06-18 13:50:00
UTC Time2019-06-18 15:02:42
Flight Rules Old
Wind240° at 15 kt
W.Decomp.*RWY 22: 14.4 kt HW 4.1 kt RCW
Visibility9999 m
Phenomena:N/A
Clouds:Scattered 030 Hf
Expected CloudBase > 5,200 ft AGL from Temp-Dew spread
CeilingNone
Temp30°C (ISA +16)
Dew Point17°C (46% RH)
Heat Index30.5°C
AAT27.0°C
QNH1009 hPa
Density Alt2,438 ft
Elevation267 ft
Report Wrong Elevation
Raw Report
METAR LTDA 181350Z 24015KT 210V280 9999 SCT030 30/17 Q1009 NOSIG=

Extra information for LTDA:More info

Metar Taf Metar & Taf Last 4 Metars F.Rules Stats Wind Profile Meteogram Temp Stats Airport Information Weather charts Add Link Nearby VenuesMetar ALERT Operation Metar Decoded Social comments